Darstellungsparameter: Aktuell verwendete Einstellungen:
Skalierung der Graphiken ... ?
xyx+y,   Skalierungsfaktor:      Skalierung: Modus: x, Faktor: 1
Darstellungszeitraum ... ?
Vom - - bis: - -   Zeitraum: 21.01.2020 - 22.01.2020
Min/Max/Avg-Anzeige ... ?
Zeige MMA aktuell
Zeige MMA Monat
Zeige MMA alles
Zeige --A aktuell
Zeige --A Monat
Zeige --A alles
Keine MMA-Anzeige
MMA:
Average (ber die Originaldaten)
MMA-Basis: 21.01.2020 - 22.01.2020
Quicknavigation für Darstellung... ?
Tage:      1T, 2T, 3T, 5T -1T -2T -3T -5T +1T +2T +3T +5T
Wochen: 1W, 2W, 3W -1W -2W -3W +1W +2W +3W
Monate: 1M, 3M, 6M -1M -3M -6M +1M +3M +6M
Jahre:    1J, 3J, 5J, 10J -1J -3J -5J -10J +1J +3J +5J +10J
Nutze für die Darstellung ... ?
Originaldaten oder Mittelwerte auf ...
Stundenbasis Tagesbasis Wochenbasis
Monatsbasis Jahresbasis      Datenbasis: Original-Daten
Darstellen als:
Statistik (Auto) Statistik J:M      Darstellung:
Zur Graphik,    zurück zur Übersicht aller Sensoren.
 
Tabellarische Datenbersicht: ?
 
Sensor: Nr:Datum:Temp:Abs-Feuchte:Windchill:Wind:
Aussen-T/F 1 21-01-2020 00:00:00 -1.7 C 4.09 g/m*3 -1.7 C 0 km/h
2 21-01-2020 00:05:00 -1.7 C 4.09 g/m*3 -1.7 C 0 km/h
3 21-01-2020 00:10:00 -1.7 C 4.09 g/m*3 -1.7 C 0 km/h
4 21-01-2020 00:15:00 -1.7 C 4.09 g/m*3 -1.7 C 0 km/h
5 21-01-2020 00:20:00 -1.7 C 4.09 g/m*3 -1.7 C 0 km/h
6 21-01-2020 00:25:00 -1.8 C 4.06 g/m*3 -1.8 C 0 km/h
7 21-01-2020 00:30:00 -1.8 C 4.06 g/m*3 -1.8 C 0 km/h
8 21-01-2020 00:35:00 -1.8 C 4.06 g/m*3 -1.8 C 0 km/h
9 21-01-2020 00:40:00 -1.8 C 4.06 g/m*3 -1.8 C 0 km/h
10 21-01-2020 00:45:00 -1.8 C 4.06 g/m*3 -1.8 C 0 km/h
11 21-01-2020 00:50:00 -1.8 C 4.06 g/m*3 -1.8 C 0 km/h
12 21-01-2020 00:55:00 -1.8 C 4.06 g/m*3 -1.8 C 0 km/h
13 21-01-2020 01:00:00 -1.8 C 4.06 g/m*3 -1.8 C 0 km/h
14 21-01-2020 01:05:00 -1.8 C 4.06 g/m*3 -1.8 C 0 km/h
15 21-01-2020 01:10:00 -1.9 C 4.03 g/m*3 -1.9 C 0 km/h
16 21-01-2020 01:15:00 -1.9 C 4.03 g/m*3 -1.9 C 0 km/h
17 21-01-2020 01:20:00 -1.9 C 4.03 g/m*3 -1.9 C 0 km/h
18 21-01-2020 01:25:00 -1.9 C 4.03 g/m*3 -1.9 C 0 km/h
19 21-01-2020 01:30:00 -1.9 C 4.03 g/m*3 -1.9 C 0 km/h
20 21-01-2020 01:35:00 -1.9 C 4.08 g/m*3 -1.9 C 0 km/h
21 21-01-2020 01:40:00 -2 C 4.05 g/m*3 -2 C 0 km/h
22 21-01-2020 01:45:00 -2 C 4.05 g/m*3 -2 C 0 km/h
23 21-01-2020 01:50:00 -2 C 4.05 g/m*3 -2 C 0 km/h
24 21-01-2020 01:55:00 -2.1 C 3.98 g/m*3 -2.1 C 0 km/h
25 21-01-2020 02:00:00 -2.2 C 3.95 g/m*3 -2.2 C 0 km/h
Sensor: Nr:Datum:Temp:Abs-Feuchte:Windchill:Wind:
Aussen-T/F 26 21-01-2020 02:05:00 -2.2 C 3.95 g/m*3 -2.2 C 0 km/h
27 21-01-2020 02:10:00 -2.3 C 3.92 g/m*3 -2.3 C 0 km/h
28 21-01-2020 02:15:00 -2.3 C 3.92 g/m*3 -2.3 C 0 km/h
29 21-01-2020 02:20:00 -2.3 C 3.92 g/m*3 -2.3 C 0 km/h
30 21-01-2020 02:25:00 -2.4 C 3.89 g/m*3 -2.4 C 0 km/h
31 21-01-2020 02:30:00 -2.4 C 3.89 g/m*3 -2.4 C 0 km/h
32 21-01-2020 02:35:00 -2.4 C 3.89 g/m*3 -2.4 C 0 km/h
33 21-01-2020 02:40:00 -2.4 C 3.89 g/m*3 -2.4 C 0 km/h
34 21-01-2020 02:45:00 -2.5 C 3.87 g/m*3 -2.5 C 0 km/h
35 21-01-2020 02:50:00 -2.5 C 3.87 g/m*3 -2.5 C 0 km/h
36 21-01-2020 02:55:00 -2.5 C 3.91 g/m*3 -2.5 C 0 km/h
37 21-01-2020 03:00:00 -2.5 C 3.91 g/m*3 -2.5 C 0 km/h
38 21-01-2020 03:05:00 -2.5 C 3.91 g/m*3 -2.5 C 0 km/h
39 21-01-2020 03:10:00 -2.5 C 3.91 g/m*3 -2.5 C 0 km/h
40 21-01-2020 03:15:00 -2.5 C 3.91 g/m*3 -2.5 C 0 km/h
41 21-01-2020 03:20:00 -2.5 C 3.91 g/m*3 -2.5 C 0 km/h
42 21-01-2020 03:25:00 -2.5 C 3.91 g/m*3 -2.5 C 0 km/h
43 21-01-2020 03:30:00 -2.5 C 3.91 g/m*3 -2.5 C 0 km/h
44 21-01-2020 03:35:00 -2.6 C 3.88 g/m*3 -2.6 C 0 km/h
45 21-01-2020 03:40:00 -2.7 C 3.81 g/m*3 -2.7 C 0 km/h
46 21-01-2020 03:45:00 -2.7 C 3.81 g/m*3 -2.7 C 0 km/h
47 21-01-2020 03:50:00 -2.8 C 3.78 g/m*3 -2.8 C 0 km/h
48 21-01-2020 03:55:00 -2.9 C 3.76 g/m*3 -2.9 C 0 km/h
49 21-01-2020 04:00:00 -2.9 C 3.76 g/m*3 -2.9 C 0 km/h
50 21-01-2020 04:05:00 -3 C 3.73 g/m*3 -3 C 0 km/h
Sensor: Nr:Datum:Temp:Abs-Feuchte:Windchill:Wind:
Aussen-T/F 51 21-01-2020 04:10:00 -3.1 C 3.71 g/m*3 -3.1 C 0 km/h
52 21-01-2020 04:15:00 -3.1 C 3.71 g/m*3 -3.1 C 0 km/h
53 21-01-2020 04:20:00 -3.1 C 3.71 g/m*3 -3.1 C 0 km/h
54 21-01-2020 04:25:00 -3 C 3.77 g/m*3 -3 C 1.6 km/h
55 21-01-2020 04:30:00 -2.9 C 3.8 g/m*3 -2.9 C 1.6 km/h
56 21-01-2020 04:35:00 -2.9 C 3.8 g/m*3 -2.9 C 0 km/h
57 21-01-2020 04:40:00 -2.8 C 3.82 g/m*3 -2.8 C 0 km/h
58 21-01-2020 04:45:00 -2.9 C 3.8 g/m*3 -2.9 C 0 km/h
59 21-01-2020 04:50:00 -3 C 3.77 g/m*3 -3 C 0 km/h
60 21-01-2020 04:55:00 -3.1 C 3.71 g/m*3 -3.1 C 0 km/h
61 21-01-2020 05:00:00 -3.1 C 3.74 g/m*3 -3.1 C 0 km/h
62 21-01-2020 05:05:00 -3.1 C 3.74 g/m*3 -3.1 C 0 km/h
63 21-01-2020 05:10:00 -3.1 C 3.74 g/m*3 -3.1 C 0 km/h
64 21-01-2020 05:15:00 -3.2 C 3.68 g/m*3 -3.2 C 0 km/h
65 21-01-2020 05:20:00 -3.2 C 3.68 g/m*3 -3.2 C 0 km/h
66 21-01-2020 05:25:00 -3.3 C 3.65 g/m*3 -3.3 C 0 km/h
67 21-01-2020 05:30:00 -3.2 C 3.68 g/m*3 -3.2 C 0 km/h
68 21-01-2020 05:35:00 -3.2 C 3.72 g/m*3 -3.2 C 0 km/h
69 21-01-2020 05:40:00 -3.2 C 3.72 g/m*3 -3.2 C 0 km/h
70 21-01-2020 05:45:00 -3.2 C 3.72 g/m*3 -3.2 C 0 km/h
71 21-01-2020 05:50:00 -3.2 C 3.72 g/m*3 -3.2 C 0 km/h
72 21-01-2020 05:55:00 -3.1 C 3.74 g/m*3 -3.1 C 0 km/h
73 21-01-2020 06:00:00 -3.1 C 3.74 g/m*3 -3.1 C 0 km/h
74 21-01-2020 06:05:00 -3 C 3.77 g/m*3 -3 C 0 km/h
75 21-01-2020 06:10:00 -3 C 3.77 g/m*3 -3 C 0 km/h
Sensor: Nr:Datum:Temp:Abs-Feuchte:Windchill:Wind:
Aussen-T/F 76 21-01-2020 06:15:00 -2.9 C 3.8 g/m*3 -2.9 C 0 km/h
77 21-01-2020 06:20:00 -2.9 C 3.8 g/m*3 -2.9 C 0 km/h
78 21-01-2020 06:25:00 -2.8 C 3.82 g/m*3 -2.8 C 0 km/h
79 21-01-2020 06:30:00 -2.8 C 3.82 g/m*3 -2.8 C 0 km/h
80 21-01-2020 06:35:00 -2.7 C 3.85 g/m*3 -2.7 C 0 km/h
81 21-01-2020 06:40:00 -2.7 C 3.85 g/m*3 -2.7 C 0 km/h
82 21-01-2020 06:45:00 -2.6 C 3.88 g/m*3 -2.6 C 0 km/h
83 21-01-2020 06:50:00 -2.6 C 3.88 g/m*3 -2.6 C 0 km/h
84 21-01-2020 06:55:00 -2.5 C 3.91 g/m*3 -2.5 C 0 km/h
85 21-01-2020 07:00:00 -2.5 C 3.91 g/m*3 -2.5 C 0 km/h
86 21-01-2020 07:05:00 -2.5 C 3.91 g/m*3 -2.5 C 0 km/h
87 21-01-2020 07:10:00 -2.5 C 3.91 g/m*3 -2.5 C 0 km/h
88 21-01-2020 07:15:00 -2.6 C 3.88 g/m*3 -2.6 C 0 km/h
89 21-01-2020 07:20:00 -2.6 C 3.88 g/m*3 -2.6 C 0 km/h
90 21-01-2020 07:25:00 -2.5 C 3.91 g/m*3 -2.5 C 0 km/h
91 21-01-2020 07:30:00 -2.5 C 3.91 g/m*3 -2.5 C 0 km/h
92 21-01-2020 07:35:00 -2.5 C 3.91 g/m*3 -2.5 C 1.6 km/h
93 21-01-2020 07:40:00 -2.6 C 3.88 g/m*3 -2.6 C 0 km/h
94 21-01-2020 07:45:00 -2.6 C 3.88 g/m*3 -2.6 C 3.2 km/h
95 21-01-2020 07:50:00 -2.6 C 3.88 g/m*3 -2.6 C 0 km/h
96 21-01-2020 07:55:00 -2.7 C 3.85 g/m*3 -2.7 C 0 km/h
97 21-01-2020 08:00:00 -2.7 C 3.85 g/m*3 -2.7 C 0 km/h
98 21-01-2020 08:05:00 -2.7 C 3.85 g/m*3 -2.7 C 0 km/h
99 21-01-2020 08:10:00 -2.7 C 3.85 g/m*3 -2.7 C 0 km/h
100 21-01-2020 08:15:00 -2.7 C 3.85 g/m*3 -2.7 C 0 km/h
Sensor: Nr:Datum:Temp:Abs-Feuchte:Windchill:Wind:
Aussen-T/F 101 21-01-2020 08:20:00 -2.7 C 3.85 g/m*3 -2.7 C 0 km/h
102 21-01-2020 08:25:00 -2.7 C 3.85 g/m*3 -2.7 C 1.6 km/h
103 21-01-2020 08:30:00 -2.7 C 3.85 g/m*3 -2.7 C 3.2 km/h
104 21-01-2020 08:35:00 -2.8 C 3.82 g/m*3 -2.8 C 1.6 km/h
105 21-01-2020 08:40:00 -2.8 C 3.82 g/m*3 -2.8 C 0 km/h
106 21-01-2020 08:45:00 -2.8 C 3.82 g/m*3 -2.8 C 0 km/h
107 21-01-2020 08:50:00 -2.8 C 3.82 g/m*3 -2.8 C 3.2 km/h
108 21-01-2020 08:55:00 -2.8 C 3.82 g/m*3 -2.8 C 1.6 km/h
109 21-01-2020 09:00:00 -2.8 C 3.82 g/m*3 -2.8 C 0 km/h
110 21-01-2020 09:05:00 -2.8 C 3.82 g/m*3 -2.8 C 4.8 km/h
111 21-01-2020 09:10:00 -2.9 C 3.8 g/m*3 -2.9 C 4.8 km/h
112 21-01-2020 09:15:00 -3.1 C 3.74 g/m*3 -3.1 C 1.6 km/h
113 21-01-2020 09:20:00 -3.1 C 3.74 g/m*3 -3.1 C 3.2 km/h
114 21-01-2020 09:25:00 -3.1 C 3.74 g/m*3 -3.1 C 0 km/h
115 21-01-2020 09:30:00 -3 C 3.77 g/m*3 -3 C 1.6 km/h
116 21-01-2020 09:35:00 -3 C 3.77 g/m*3 -3 C 0 km/h
117 21-01-2020 09:40:00 -3 C 3.77 g/m*3 -3 C 1.6 km/h
118 21-01-2020 09:45:00 -3 C 3.77 g/m*3 -3 C 1.6 km/h
119 21-01-2020 09:50:00 -3 C 3.77 g/m*3 -3 C 0 km/h
120 21-01-2020 09:55:00 -2.9 C 3.8 g/m*3 -2.9 C 1.6 km/h
121 21-01-2020 10:00:00 -2.9 C 3.8 g/m*3 -2.9 C 3.2 km/h
122 21-01-2020 10:05:00 -2.8 C 3.82 g/m*3 -2.8 C 1.6 km/h
123 21-01-2020 10:10:00 -2.8 C 3.82 g/m*3 -2.8 C 0 km/h
124 21-01-2020 10:15:00 -2.8 C 3.82 g/m*3 -2.8 C 0 km/h
125 21-01-2020 10:20:00 -2.8 C 3.82 g/m*3 -2.8 C 0 km/h
Sensor: Nr:Datum:Temp:Abs-Feuchte:Windchill:Wind:
Aussen-T/F 126 21-01-2020 10:25:00 -2.8 C 3.82 g/m*3 -2.8 C 0 km/h
127 21-01-2020 10:30:00 -2.8 C 3.82 g/m*3 -2.8 C 0 km/h
128 21-01-2020 10:35:00 -2.7 C 3.85 g/m*3 -2.7 C 0 km/h
129 21-01-2020 10:40:00 -2.7 C 3.85 g/m*3 -2.7 C 0 km/h
130 21-01-2020 10:45:00 -2.7 C 3.85 g/m*3 -2.7 C 0 km/h
131 21-01-2020 10:50:00 -2.7 C 3.85 g/m*3 -2.7 C 0 km/h
132 21-01-2020 10:55:00 -2.7 C 3.85 g/m*3 -2.7 C 0 km/h
133 21-01-2020 11:00:00 -2.6 C 3.88 g/m*3 -2.6 C 0 km/h
134 21-01-2020 11:05:00 -2.6 C 3.92 g/m*3 -2.6 C 0 km/h
135 21-01-2020 11:10:00 -2.5 C 3.91 g/m*3 -2.5 C 0 km/h
136 21-01-2020 11:15:00 -2.5 C 3.91 g/m*3 -2.5 C 0 km/h
137 21-01-2020 11:20:00 -2.4 C 3.98 g/m*3 -2.4 C 0 km/h
138 21-01-2020 11:25:00 -2.3 C 4 g/m*3 -2.3 C 0 km/h
139 21-01-2020 11:30:00 -2.2 C 4.03 g/m*3 -2.2 C 0 km/h
140 21-01-2020 11:35:00 -2.1 C 4.06 g/m*3 -2.1 C 0 km/h
141 21-01-2020 11:40:00 -1.9 C 4.12 g/m*3 -1.9 C 0 km/h
142 21-01-2020 11:45:00 -1.8 C 4.15 g/m*3 -1.8 C 0 km/h
143 21-01-2020 11:50:00 -1.7 C 4.18 g/m*3 -1.7 C 0 km/h
144 21-01-2020 11:55:00 -1.6 C 4.21 g/m*3 -1.6 C 0 km/h
145 21-01-2020 12:00:00 -1.6 C 4.21 g/m*3 -1.6 C 0 km/h
146 21-01-2020 12:05:00 -1.5 C 4.23 g/m*3 -1.5 C 0 km/h
147 21-01-2020 12:10:00 -1.4 C 4.26 g/m*3 -1.4 C 0 km/h
148 21-01-2020 12:15:00 -1.3 C 4.29 g/m*3 -1.3 C 3.2 km/h
149 21-01-2020 12:20:00 -1.3 C 4.29 g/m*3 -1.3 C 3.2 km/h
150 21-01-2020 12:25:00 -1.3 C 4.29 g/m*3 -1.3 C 4.8 km/h
Sensor: Nr:Datum:Temp:Abs-Feuchte:Windchill:Wind:
Aussen-T/F 151 21-01-2020 12:30:00 -1.2 C 4.32 g/m*3 -1.2 C 1.6 km/h
152 21-01-2020 12:35:00 -1.2 C 4.32 g/m*3 -1.2 C 0 km/h
153 21-01-2020 12:40:00 -1.1 C 4.35 g/m*3 -1.1 C 1.6 km/h
154 21-01-2020 12:45:00 -0.9 C 4.42 g/m*3 -0.9 C 3.2 km/h
155 21-01-2020 12:50:00 -0.9 C 4.42 g/m*3 -0.9 C 4.8 km/h
156 21-01-2020 12:55:00 -0.9 C 4.42 g/m*3 -3.22 C 6.4 km/h
157 21-01-2020 13:00:00 -0.8 C 4.45 g/m*3 -0.8 C 1.6 km/h
158 21-01-2020 13:05:00 -0.7 C 4.48 g/m*3 -0.7 C 3.2 km/h
159 21-01-2020 13:10:00 -0.7 C 4.48 g/m*3 -0.7 C 3.2 km/h
160 21-01-2020 13:15:00 -0.7 C 4.48 g/m*3 -0.7 C 3.2 km/h
161 21-01-2020 13:20:00 -0.7 C 4.48 g/m*3 -0.7 C 3.2 km/h
162 21-01-2020 13:25:00 -0.7 C 4.48 g/m*3 -2.99 C 6.4 km/h
163 21-01-2020 13:30:00 -0.6 C 4.51 g/m*3 -0.6 C 4.8 km/h
164 21-01-2020 13:35:00 -0.6 C 4.51 g/m*3 -0.6 C 4.8 km/h
165 21-01-2020 13:40:00 -0.5 C 4.54 g/m*3 -0.5 C 3.2 km/h
166 21-01-2020 13:45:00 -0.4 C 4.57 g/m*3 -0.4 C 0 km/h
167 21-01-2020 13:50:00 -0.4 C 4.57 g/m*3 -2.64 C 6.4 km/h
168 21-01-2020 13:55:00 -0.4 C 4.57 g/m*3 -0.4 C 4.8 km/h
169 21-01-2020 14:00:00 -0.4 C 4.57 g/m*3 -0.4 C 3.2 km/h
170 21-01-2020 14:05:00 -0.3 C 4.6 g/m*3 -0.3 C 0 km/h
171 21-01-2020 14:10:00 -0.3 C 4.6 g/m*3 -0.3 C 0 km/h
172 21-01-2020 14:15:00 -0.3 C 4.6 g/m*3 -0.3 C 0 km/h
173 21-01-2020 14:20:00 -0.2 C 4.64 g/m*3 -0.2 C 0 km/h
174 21-01-2020 14:25:00 -0.2 C 4.64 g/m*3 -0.2 C 0 km/h
175 21-01-2020 14:30:00 -0.1 C 4.67 g/m*3 -0.1 C 0 km/h
Sensor: Nr:Datum:Temp:Abs-Feuchte:Windchill:Wind:
Aussen-T/F 176 21-01-2020 14:35:00 -0.1 C 4.67 g/m*3 -0.1 C 0 km/h
177 21-01-2020 14:40:00 0 C 4.7 g/m*3 -2.18 C 6.4 km/h
178 21-01-2020 14:45:00 -0.1 C 4.67 g/m*3 -2.3 C 6.4 km/h
179 21-01-2020 14:50:00 -0.1 C 4.67 g/m*3 -0.1 C 0 km/h
180 21-01-2020 14:55:00 0 C 4.7 g/m*3 0 C 1.6 km/h
181 21-01-2020 15:00:00 0 C 4.7 g/m*3 0 C 1.6 km/h
182 21-01-2020 15:05:00 0 C 4.7 g/m*3 0 C 3.2 km/h
183 21-01-2020 15:10:00 0 C 4.7 g/m*3 -2.18 C 6.4 km/h
184 21-01-2020 15:15:00 0 C 4.7 g/m*3 0 C 1.6 km/h
185 21-01-2020 15:20:00 0 C 4.7 g/m*3 0 C 3.2 km/h
186 21-01-2020 15:25:00 0 C 4.7 g/m*3 0 C 1.6 km/h
187 21-01-2020 15:30:00 0 C 4.7 g/m*3 0 C 0 km/h
188 21-01-2020 15:35:00 0.1 C 4.73 g/m*3 0.1 C 1.6 km/h
189 21-01-2020 15:40:00 0.1 C 4.73 g/m*3 0.1 C 1.6 km/h
190 21-01-2020 15:45:00 0.1 C 4.73 g/m*3 0.1 C 0 km/h
191 21-01-2020 15:50:00 0.1 C 4.73 g/m*3 0.1 C 1.6 km/h
192 21-01-2020 15:55:00 0 C 4.7 g/m*3 0 C 0 km/h
193 21-01-2020 16:00:00 0 C 4.7 g/m*3 0 C 0 km/h
194 21-01-2020 16:05:00 0 C 4.7 g/m*3 0 C 0 km/h
195 21-01-2020 16:10:00 -0.1 C 4.67 g/m*3 -0.1 C 0 km/h
196 21-01-2020 16:15:00 -0.1 C 4.67 g/m*3 -0.1 C 0 km/h
197 21-01-2020 16:20:00 -0.2 C 4.64 g/m*3 -0.2 C 0 km/h
198 21-01-2020 16:25:00 -0.2 C 4.64 g/m*3 -0.2 C 0 km/h
199 21-01-2020 16:30:00 -0.2 C 4.64 g/m*3 -0.2 C 0 km/h
200 21-01-2020 16:35:00 -0.2 C 4.64 g/m*3 -0.2 C 0 km/h
Sensor: Nr:Datum:Temp:Abs-Feuchte:Windchill:Wind:
Aussen-T/F 201 21-01-2020 16:40:00 -0.2 C 4.64 g/m*3 -0.2 C 0 km/h
202 21-01-2020 16:45:00 -0.3 C 4.6 g/m*3 -0.3 C 0 km/h
203 21-01-2020 16:50:00 -0.3 C 4.6 g/m*3 -0.3 C 1.6 km/h
204 21-01-2020 16:55:00 -0.3 C 4.6 g/m*3 -0.3 C 0 km/h
205 21-01-2020 17:00:00 -0.4 C 4.57 g/m*3 -0.4 C 0 km/h
206 21-01-2020 17:05:00 -0.4 C 4.57 g/m*3 -0.4 C 0 km/h
207 21-01-2020 17:10:00 -0.5 C 4.54 g/m*3 -0.5 C 0 km/h
208 21-01-2020 17:15:00 -0.5 C 4.54 g/m*3 -0.5 C 0 km/h
209 21-01-2020 17:20:00 -0.6 C 4.51 g/m*3 -0.6 C 0 km/h
210 21-01-2020 17:25:00 -0.6 C 4.51 g/m*3 -0.6 C 0 km/h
211 21-01-2020 17:30:00 -0.6 C 4.51 g/m*3 -0.6 C 0 km/h
212 21-01-2020 17:35:00 -0.6 C 4.51 g/m*3 -0.6 C 0 km/h
213 21-01-2020 17:40:00 -0.6 C 4.51 g/m*3 -0.6 C 0 km/h
214 21-01-2020 17:45:00 -0.7 C 4.48 g/m*3 -0.7 C 0 km/h
215 21-01-2020 17:50:00 -0.7 C 4.48 g/m*3 -0.7 C 0 km/h
216 21-01-2020 17:55:00 -0.8 C 4.45 g/m*3 -0.8 C 0 km/h
217 21-01-2020 18:00:00 -0.8 C 4.45 g/m*3 -0.8 C 0 km/h
218 21-01-2020 18:05:00 -0.8 C 4.45 g/m*3 -0.8 C 0 km/h
219 21-01-2020 18:10:00 -0.8 C 4.45 g/m*3 -0.8 C 0 km/h
220 21-01-2020 18:15:00 -0.9 C 4.42 g/m*3 -0.9 C 0 km/h
221 21-01-2020 18:20:00 -1 C 4.38 g/m*3 -1 C 0 km/h
222 21-01-2020 18:25:00 -1.1 C 4.35 g/m*3 -1.1 C 0 km/h
223 21-01-2020 18:30:00 -1.1 C 4.35 g/m*3 -1.1 C 0 km/h
224 21-01-2020 18:35:00 -1.1 C 4.35 g/m*3 -1.1 C 0 km/h
225 21-01-2020 18:40:00 -1.2 C 4.32 g/m*3 -1.2 C 0 km/h
Sensor: Nr:Datum:Temp:Abs-Feuchte:Windchill:Wind:
Aussen-T/F 226 21-01-2020 18:45:00 -1.2 C 4.32 g/m*3 -1.2 C 0 km/h
227 21-01-2020 18:50:00 -1.2 C 4.32 g/m*3 -1.2 C 0 km/h
228 21-01-2020 18:55:00 -1.3 C 4.29 g/m*3 -1.3 C 0 km/h
229 21-01-2020 19:00:00 -1.3 C 4.29 g/m*3 -1.3 C 0 km/h
230 21-01-2020 19:05:00 -1.3 C 4.29 g/m*3 -1.3 C 0 km/h
231 21-01-2020 19:10:00 -1.3 C 4.29 g/m*3 -1.3 C 1.6 km/h
232 21-01-2020 19:15:00 -1.3 C 4.29 g/m*3 -1.3 C 0 km/h
233 21-01-2020 19:20:00 -1.3 C 4.29 g/m*3 -1.3 C 0 km/h
234 21-01-2020 19:25:00 -1.3 C 4.29 g/m*3 -1.3 C 0 km/h
235 21-01-2020 19:30:00 -1.3 C 4.29 g/m*3 -1.3 C 0 km/h
236 21-01-2020 19:35:00 -1.3 C 4.29 g/m*3 -1.3 C 0 km/h
237 21-01-2020 19:40:00 -1.3 C 4.29 g/m*3 -1.3 C 0 km/h
238 21-01-2020 19:45:00 -1.3 C 4.29 g/m*3 -1.3 C 0 km/h
239 21-01-2020 19:50:00 -1.3 C 4.29 g/m*3 -1.3 C 0 km/h
240 21-01-2020 19:55:00 -1.3 C 4.29 g/m*3 -1.3 C 0 km/h
241 21-01-2020 20:00:00 -1.3 C 4.29 g/m*3 -1.3 C 0 km/h
242 21-01-2020 20:05:00 -1.3 C 4.29 g/m*3 -1.3 C 0 km/h
243 21-01-2020 20:10:00 -1.3 C 4.29 g/m*3 -1.3 C 0 km/h
244 21-01-2020 20:15:00 -1.4 C 4.26 g/m*3 -1.4 C 0 km/h
245 21-01-2020 20:20:00 -1.4 C 4.26 g/m*3 -1.4 C 0 km/h
246 21-01-2020 20:25:00 -1.4 C 4.26 g/m*3 -1.4 C 0 km/h
247 21-01-2020 20:30:00 -1.5 C 4.23 g/m*3 -1.5 C 0 km/h
248 21-01-2020 20:35:00 -1.5 C 4.23 g/m*3 -1.5 C 0 km/h
249 21-01-2020 20:40:00 -1.5 C 4.23 g/m*3 -1.5 C 0 km/h
250 21-01-2020 20:45:00 -1.6 C 4.21 g/m*3 -1.6 C 0 km/h
Sensor: Nr:Datum:Temp:Abs-Feuchte:Windchill:Wind:
Aussen-T/F 251 21-01-2020 20:50:00 -1.6 C 4.21 g/m*3 -1.6 C 0 km/h
252 21-01-2020 20:55:00 -1.6 C 4.21 g/m*3 -1.6 C 0 km/h
253 21-01-2020 21:00:00 -1.7 C 4.18 g/m*3 -1.7 C 0 km/h
254 21-01-2020 21:05:00 -1.7 C 4.18 g/m*3 -1.7 C 0 km/h
255 21-01-2020 21:10:00 -1.8 C 4.15 g/m*3 -1.8 C 0 km/h
256 21-01-2020 21:15:00 -1.8 C 4.15 g/m*3 -1.8 C 0 km/h
257 21-01-2020 21:20:00 -1.8 C 4.15 g/m*3 -1.8 C 0 km/h
258 21-01-2020 21:25:00 -1.9 C 4.12 g/m*3 -1.9 C 0 km/h
259 21-01-2020 21:30:00 -1.9 C 4.12 g/m*3 -1.9 C 0 km/h
260 21-01-2020 21:35:00 -1.9 C 4.12 g/m*3 -1.9 C 0 km/h
261 21-01-2020 21:40:00 -1.8 C 4.15 g/m*3 -1.8 C 0 km/h
262 21-01-2020 21:45:00 -1.8 C 4.15 g/m*3 -1.8 C 0 km/h
263 21-01-2020 21:50:00 -1.8 C 4.15 g/m*3 -1.8 C 0 km/h
264 21-01-2020 21:55:00 -1.8 C 4.15 g/m*3 -1.8 C 0 km/h
265 21-01-2020 22:00:00 -1.8 C 4.15 g/m*3 -1.8 C 0 km/h
266 21-01-2020 22:05:00 -1.8 C 4.15 g/m*3 -1.8 C 0 km/h
267 21-01-2020 22:10:00 -1.8 C 4.15 g/m*3 -1.8 C 0 km/h
268 21-01-2020 22:15:00 -1.8 C 4.15 g/m*3 -1.8 C 0 km/h
269 21-01-2020 22:20:00 -1.8 C 4.15 g/m*3 -1.8 C 0 km/h
270 21-01-2020 22:25:00 -1.9 C 4.12 g/m*3 -1.9 C 0 km/h
271 21-01-2020 22:30:00 -1.9 C 4.12 g/m*3 -1.9 C 0 km/h
272 21-01-2020 22:35:00 -1.9 C 4.12 g/m*3 -1.9 C 0 km/h
273 21-01-2020 22:40:00 -1.9 C 4.12 g/m*3 -1.9 C 0 km/h
274 21-01-2020 22:45:00 -2 C 4.09 g/m*3 -2 C 0 km/h
275 21-01-2020 22:50:00 -2 C 4.09 g/m*3 -2 C 0 km/h
Sensor: Nr:Datum:Temp:Abs-Feuchte:Windchill:Wind:
Aussen-T/F 276 21-01-2020 22:55:00 -2.1 C 4.06 g/m*3 -2.1 C 0 km/h
277 21-01-2020 23:00:00 -2.1 C 4.06 g/m*3 -2.1 C 0 km/h
278 21-01-2020 23:05:00 -2.2 C 4.03 g/m*3 -2.2 C 0 km/h
279 21-01-2020 23:10:00 -2.2 C 4.03 g/m*3 -2.2 C 0 km/h
280 21-01-2020 23:15:00 -2.2 C 4.03 g/m*3 -2.2 C 0 km/h
281 21-01-2020 23:20:00 -2.2 C 4.03 g/m*3 -2.2 C 0 km/h
282 21-01-2020 23:25:00 -2.2 C 4.03 g/m*3 -2.2 C 0 km/h
283 21-01-2020 23:30:00 -2.2 C 4.03 g/m*3 -2.2 C 0 km/h
284 21-01-2020 23:35:00 -2.2 C 4.03 g/m*3 -2.2 C 0 km/h
285 21-01-2020 23:40:00 -2.2 C 4.03 g/m*3 -2.2 C 0 km/h
286 21-01-2020 23:45:00 -2.3 C 4 g/m*3 -2.3 C 0 km/h
287 21-01-2020 23:50:00 -2.3 C 4 g/m*3 -2.3 C 0 km/h
288 21-01-2020 23:55:00 -2.3 C 4 g/m*3 -2.3 C 0 km/h
289 22-01-2020 00:00:00 -2.3 C 4 g/m*3 -2.3 C 0 km/h
290 22-01-2020 00:05:00 -2.3 C 4 g/m*3 -2.3 C 0 km/h
291 22-01-2020 00:10:00 -2.3 C 4 g/m*3 -2.3 C 0 km/h
292 22-01-2020 00:15:00 -2.4 C 3.98 g/m*3 -2.4 C 0 km/h
293 22-01-2020 00:20:00 -2.4 C 3.98 g/m*3 -2.4 C 0 km/h
294 22-01-2020 00:25:00 -2.5 C 3.95 g/m*3 -2.5 C 3.2 km/h
295 22-01-2020 00:30:00 -2.5 C 3.95 g/m*3 -2.5 C 0 km/h
296 22-01-2020 00:35:00 -2.5 C 3.95 g/m*3 -2.5 C 0 km/h
297 22-01-2020 00:40:00 -2.4 C 3.98 g/m*3 -2.4 C 0 km/h
298 22-01-2020 00:45:00 -2.4 C 3.98 g/m*3 -2.4 C 0 km/h
299 22-01-2020 00:50:00 -2.4 C 3.98 g/m*3 -2.4 C 3.2 km/h
300 22-01-2020 00:55:00 -2.5 C 3.95 g/m*3 -2.5 C 0 km/h
Sensor: Nr:Datum:Temp:Abs-Feuchte:Windchill:Wind:
Aussen-T/F 301 22-01-2020 01:00:00 -2.5 C 3.95 g/m*3 -2.5 C 0 km/h
302 22-01-2020 01:05:00 -2.6 C 3.92 g/m*3 -2.6 C 0 km/h
303 22-01-2020 01:10:00 -2.6 C 3.92 g/m*3 -2.6 C 0 km/h
304 22-01-2020 01:15:00 -2.6 C 3.92 g/m*3 -2.6 C 1.6 km/h
305 22-01-2020 01:20:00 -2.6 C 3.92 g/m*3 -2.6 C 0 km/h
306 22-01-2020 01:25:00 -2.6 C 3.92 g/m*3 -2.6 C 0 km/h
307 22-01-2020 01:30:00 -2.6 C 3.92 g/m*3 -2.6 C 1.6 km/h
308 22-01-2020 01:35:00 -2.7 C 3.89 g/m*3 -2.7 C 1.6 km/h
309 22-01-2020 01:40:00 -2.7 C 3.89 g/m*3 -2.7 C 0 km/h
310 22-01-2020 01:45:00 -2.7 C 3.89 g/m*3 -2.7 C 0 km/h
311 22-01-2020 01:50:00 -2.7 C 3.89 g/m*3 -2.7 C 0 km/h
312 22-01-2020 01:55:00 -2.7 C 3.89 g/m*3 -2.7 C 0 km/h
313 22-01-2020 02:00:00 -2.7 C 3.89 g/m*3 -2.7 C 1.6 km/h
314 22-01-2020 02:05:00 -2.7 C 3.89 g/m*3 -2.7 C 1.6 km/h
315 22-01-2020 02:10:00 -2.8 C 3.86 g/m*3 -2.8 C 0 km/h
316 22-01-2020 02:15:00 -2.7 C 3.89 g/m*3 -2.7 C 0 km/h
317 22-01-2020 02:20:00 -2.8 C 3.86 g/m*3 -2.8 C 1.6 km/h
318 22-01-2020 02:25:00 -2.8 C 3.86 g/m*3 -2.8 C 0 km/h
319 22-01-2020 02:30:00 -2.8 C 3.86 g/m*3 -2.8 C 0 km/h
320 22-01-2020 02:35:00 -2.8 C 3.86 g/m*3 -2.8 C 0 km/h
321 22-01-2020 02:40:00 -2.8 C 3.82 g/m*3 -2.8 C 0 km/h
322 22-01-2020 02:45:00 -2.8 C 3.82 g/m*3 -2.8 C 3.2 km/h
323 22-01-2020 02:50:00 -2.8 C 3.82 g/m*3 -2.8 C 0 km/h
324 22-01-2020 02:55:00 -2.8 C 3.82 g/m*3 -2.8 C 1.6 km/h
325 22-01-2020 03:00:00 -2.9 C 3.8 g/m*3 -2.9 C 1.6 km/h
Sensor: Nr:Datum:Temp:Abs-Feuchte:Windchill:Wind:
Aussen-T/F 326 22-01-2020 03:05:00 -2.9 C 3.8 g/m*3 -2.9 C 0 km/h
327 22-01-2020 03:10:00 -2.9 C 3.8 g/m*3 -2.9 C 0 km/h
328 22-01-2020 03:15:00 -2.9 C 3.8 g/m*3 -2.9 C 3.2 km/h
329 22-01-2020 03:20:00 -2.9 C 3.8 g/m*3 -2.9 C 1.6 km/h
330 22-01-2020 03:25:00 -3 C 3.77 g/m*3 -3 C 4.8 km/h
331 22-01-2020 03:30:00 -3.1 C 3.74 g/m*3 -3.1 C 0 km/h
332 22-01-2020 03:35:00 -3.1 C 3.74 g/m*3 -3.1 C 0 km/h
333 22-01-2020 03:40:00 -3.1 C 3.74 g/m*3 -3.1 C 1.6 km/h
334 22-01-2020 03:45:00 -3.1 C 3.74 g/m*3 -3.1 C 0 km/h
335 22-01-2020 03:50:00 -3 C 3.77 g/m*3 -3 C 0 km/h
336 22-01-2020 03:55:00 -3 C 3.77 g/m*3 -3 C 1.6 km/h
337 22-01-2020 04:00:00 -3 C 3.77 g/m*3 -3 C 1.6 km/h
338 22-01-2020 04:05:00 -3 C 3.77 g/m*3 -3 C 1.6 km/h
339 22-01-2020 04:10:00 -2.9 C 3.8 g/m*3 -2.9 C 0 km/h
340 22-01-2020 04:15:00 -2.9 C 3.8 g/m*3 -2.9 C 0 km/h
341 22-01-2020 04:20:00 -2.9 C 3.8 g/m*3 -2.9 C 0 km/h
342 22-01-2020 04:25:00 -2.9 C 3.8 g/m*3 -2.9 C 3.2 km/h
343 22-01-2020 04:30:00 -2.9 C 3.8 g/m*3 -2.9 C 1.6 km/h
344 22-01-2020 04:35:00 -2.9 C 3.8 g/m*3 -2.9 C 1.6 km/h
345 22-01-2020 04:40:00 -2.9 C 3.8 g/m*3 -2.9 C 0 km/h
346 22-01-2020 04:45:00 -2.9 C 3.8 g/m*3 -2.9 C 0 km/h
347 22-01-2020 04:50:00 -2.9 C 3.8 g/m*3 -2.9 C 0 km/h
348 22-01-2020 04:55:00 -2.9 C 3.8 g/m*3 -2.9 C 0 km/h
349 22-01-2020 05:00:00 -3 C 3.77 g/m*3 -3 C 0 km/h
350 22-01-2020 05:05:00 -3 C 3.77 g/m*3 -3 C 0 km/h
Sensor: Nr:Datum:Temp:Abs-Feuchte:Windchill:Wind:
Aussen-T/F 351 22-01-2020 05:10:00 -3 C 3.77 g/m*3 -3 C 0 km/h
352 22-01-2020 05:15:00 -3.1 C 3.74 g/m*3 -3.1 C 0 km/h
353 22-01-2020 05:20:00 -3.1 C 3.74 g/m*3 -3.1 C 0 km/h
354 22-01-2020 05:25:00 -3 C 3.77 g/m*3 -3 C 0 km/h
355 22-01-2020 05:30:00 -3 C 3.77 g/m*3 -3 C 3.2 km/h
356 22-01-2020 05:35:00 -2.9 C 3.8 g/m*3 -2.9 C 1.6 km/h
357 22-01-2020 05:40:00 -2.9 C 3.8 g/m*3 -2.9 C 3.2 km/h
358 22-01-2020 05:45:00 -2.9 C 3.8 g/m*3 -2.9 C 1.6 km/h
359 22-01-2020 05:50:00 -2.9 C 3.8 g/m*3 -2.9 C 0 km/h
360 22-01-2020 05:55:00 -2.9 C 3.8 g/m*3 -2.9 C 1.6 km/h
361 22-01-2020 06:00:00 -2.9 C 3.8 g/m*3 -2.9 C 3.2 km/h
362 22-01-2020 06:05:00 -2.9 C 3.8 g/m*3 -2.9 C 1.6 km/h
363 22-01-2020 06:10:00 -2.9 C 3.8 g/m*3 -2.9 C 3.2 km/h
364 22-01-2020 06:15:00 -3 C 3.77 g/m*3 -3 C 1.6 km/h
365 22-01-2020 06:20:00 -3 C 3.77 g/m*3 -3 C 3.2 km/h
366 22-01-2020 06:25:00 -2.9 C 3.8 g/m*3 -2.9 C 1.6 km/h
367 22-01-2020 06:30:00 -2.9 C 3.8 g/m*3 -2.9 C 1.6 km/h
368 22-01-2020 06:35:00 -2.9 C 3.8 g/m*3 -2.9 C 4.8 km/h
369 22-01-2020 06:40:00 -3 C 3.77 g/m*3 -3 C 0 km/h
370 22-01-2020 06:45:00 -3 C 3.77 g/m*3 -3 C 0 km/h
371 22-01-2020 06:50:00 -2.9 C 3.8 g/m*3 -2.9 C 0 km/h
372 22-01-2020 06:55:00 -2.9 C 3.8 g/m*3 -2.9 C 0 km/h
373 22-01-2020 07:00:00 -2.9 C 3.8 g/m*3 -2.9 C 0 km/h
374 22-01-2020 07:05:00 -2.9 C 3.8 g/m*3 -2.9 C 0 km/h
375 22-01-2020 07:10:00 -2.8 C 3.82 g/m*3 -2.8 C 0 km/h
Sensor: Nr:Datum:Temp:Abs-Feuchte:Windchill:Wind:
Aussen-T/F 376 22-01-2020 07:15:00 -2.8 C 3.82 g/m*3 -2.8 C 0 km/h
377 22-01-2020 07:20:00 -2.8 C 3.86 g/m*3 -2.8 C 0 km/h
378 22-01-2020 07:25:00 -2.8 C 3.86 g/m*3 -2.8 C 0 km/h
379 22-01-2020 07:30:00 -2.7 C 3.89 g/m*3 -2.7 C 0 km/h
380 22-01-2020 07:35:00 -2.7 C 3.89 g/m*3 -2.7 C 3.2 km/h
381 22-01-2020 07:40:00 -2.6 C 3.92 g/m*3 -2.6 C 0 km/h
382 22-01-2020 07:45:00 -2.6 C 3.92 g/m*3 -2.6 C 0 km/h
383 22-01-2020 07:50:00 -2.6 C 3.92 g/m*3 -2.6 C 0 km/h
384 22-01-2020 07:55:00 -2.4 C 3.98 g/m*3 -2.4 C 1.6 km/h
385 22-01-2020 08:00:00 -2.4 C 3.98 g/m*3 -2.4 C 0 km/h
386 22-01-2020 08:05:00 -2.4 C 3.98 g/m*3 -2.4 C 1.6 km/h
387 22-01-2020 08:10:00 -2.3 C 4 g/m*3 -2.3 C 4.8 km/h
388 22-01-2020 08:15:00 -2.3 C 4 g/m*3 -5.47 C 8.1 km/h
389 22-01-2020 08:20:00 -2.4 C 3.98 g/m*3 -4.95 C 6.4 km/h
390 22-01-2020 08:25:00 -2.4 C 3.98 g/m*3 -2.4 C 4.8 km/h
391 22-01-2020 08:30:00 -2.4 C 3.93 g/m*3 -2.4 C 3.2 km/h
392 22-01-2020 08:35:00 -2.4 C 3.93 g/m*3 -2.4 C 4.8 km/h
393 22-01-2020 08:40:00 -2.5 C 3.91 g/m*3 -2.5 C 1.6 km/h
394 22-01-2020 08:45:00 -2.6 C 3.88 g/m*3 -2.6 C 1.6 km/h
395 22-01-2020 08:50:00 -2.5 C 3.91 g/m*3 -2.5 C 0 km/h
396 22-01-2020 08:55:00 -2.4 C 3.98 g/m*3 -2.4 C 0 km/h
397 22-01-2020 09:00:00 -2.4 C 3.98 g/m*3 -2.4 C 0 km/h
398 22-01-2020 09:05:00 -2.3 C 4 g/m*3 -2.3 C 0 km/h
399 22-01-2020 09:10:00 -2.3 C 4 g/m*3 -2.3 C 0 km/h
400 22-01-2020 09:15:00 -2.3 C 4 g/m*3 -2.3 C 0 km/h
Sensor: Nr:Datum:Temp:Abs-Feuchte:Windchill:Wind:
Aussen-T/F 401 22-01-2020 09:20:00 -2.3 C 4 g/m*3 -2.3 C 0 km/h
402 22-01-2020 09:25:00 -2.3 C 4 g/m*3 -2.3 C 0 km/h
403 22-01-2020 09:30:00 -2.3 C 4 g/m*3 -2.3 C 0 km/h
404 22-01-2020 09:35:00 -2.3 C 4 g/m*3 -2.3 C 1.6 km/h
405 22-01-2020 09:40:00 -2.3 C 4 g/m*3 -2.3 C 4.8 km/h
406 22-01-2020 09:45:00 -2.3 C 4 g/m*3 -2.3 C 1.6 km/h
407 22-01-2020 09:50:00 -2.2 C 4.03 g/m*3 -2.2 C 4.8 km/h
408 22-01-2020 09:55:00 -2.2 C 4.03 g/m*3 -2.2 C 4.8 km/h
409 22-01-2020 10:00:00 -2.2 C 4.03 g/m*3 -2.2 C 1.6 km/h
410 22-01-2020 10:05:00 -2.2 C 4.03 g/m*3 -2.2 C 1.6 km/h
411 22-01-2020 10:10:00 -2.3 C 4 g/m*3 -2.3 C 4.8 km/h
412 22-01-2020 10:15:00 -2.3 C 4 g/m*3 -5.47 C 8.1 km/h
413 22-01-2020 10:20:00 -2.3 C 4 g/m*3 -4.84 C 6.4 km/h
414 22-01-2020 10:25:00 -2.3 C 4 g/m*3 -4.84 C 6.4 km/h
415 22-01-2020 10:30:00 -2.3 C 4 g/m*3 -2.3 C 4.8 km/h
416 22-01-2020 10:35:00 -2.4 C 3.98 g/m*3 -2.4 C 4.8 km/h
417 22-01-2020 10:40:00 -2.4 C 3.98 g/m*3 -2.4 C 0 km/h
418 22-01-2020 10:45:00 -2.4 C 3.98 g/m*3 -2.4 C 0 km/h
419 22-01-2020 10:50:00 -2.4 C 3.98 g/m*3 -2.4 C 0 km/h
420 22-01-2020 10:55:00 -2.3 C 4 g/m*3 -2.3 C 0 km/h
421 22-01-2020 11:00:00 -2.3 C 4 g/m*3 -2.3 C 0 km/h
422 22-01-2020 11:05:00 -2.2 C 4.03 g/m*3 -2.2 C 0 km/h
423 22-01-2020 11:10:00 -2.1 C 4.06 g/m*3 -2.1 C 0 km/h
424 22-01-2020 11:15:00 -2 C 4.09 g/m*3 -2 C 0 km/h
425 22-01-2020 11:20:00 -1.9 C 4.12 g/m*3 -1.9 C 0 km/h
Sensor: Nr:Datum:Temp:Abs-Feuchte:Windchill:Wind:
Aussen-T/F 426 22-01-2020 11:25:00 -1.8 C 4.15 g/m*3 -1.8 C 0 km/h
427 22-01-2020 11:30:00 -1.7 C 4.18 g/m*3 -1.7 C 0 km/h
428 22-01-2020 11:35:00 -1.6 C 4.21 g/m*3 -1.6 C 3.2 km/h
429 22-01-2020 11:40:00 -1.5 C 4.23 g/m*3 -1.5 C 3.2 km/h
430 22-01-2020 11:45:00 -1.4 C 4.26 g/m*3 -1.4 C 3.2 km/h
431 22-01-2020 11:50:00 -1.3 C 4.29 g/m*3 -1.3 C 3.2 km/h
432 22-01-2020 11:55:00 -1.2 C 4.32 g/m*3 -1.2 C 3.2 km/h
433 22-01-2020 12:00:00 -1.2 C 4.32 g/m*3 -1.2 C 1.6 km/h
434 22-01-2020 12:05:00 -1.1 C 4.35 g/m*3 -1.1 C 1.6 km/h
435 22-01-2020 12:10:00 -1 C 4.38 g/m*3 -1 C 0 km/h
436 22-01-2020 12:15:00 -0.9 C 4.42 g/m*3 -0.9 C 0 km/h
437 22-01-2020 12:20:00 -0.9 C 4.42 g/m*3 -0.9 C 3.2 km/h
438 22-01-2020 12:25:00 -0.9 C 4.42 g/m*3 -0.9 C 3.2 km/h
439 22-01-2020 12:30:00 -0.9 C 4.42 g/m*3 -0.9 C 3.2 km/h
440 22-01-2020 12:35:00 -0.9 C 4.42 g/m*3 -0.9 C 1.6 km/h
441 22-01-2020 12:40:00 -0.9 C 4.42 g/m*3 -0.9 C 1.6 km/h
442 22-01-2020 12:45:00 -0.8 C 4.45 g/m*3 -0.8 C 1.6 km/h
443 22-01-2020 12:50:00 -0.8 C 4.45 g/m*3 -0.8 C 1.6 km/h
444 22-01-2020 12:55:00 -0.8 C 4.45 g/m*3 -0.8 C 1.6 km/h
445 22-01-2020 13:00:00 -0.7 C 4.48 g/m*3 -0.7 C 3.2 km/h
446 22-01-2020 13:05:00 -0.7 C 4.48 g/m*3 -0.7 C 3.2 km/h
447 22-01-2020 13:10:00 -0.6 C 4.56 g/m*3 -0.6 C 0 km/h
448 22-01-2020 13:15:00 -0.6 C 4.56 g/m*3 -0.6 C 0 km/h
449 22-01-2020 13:20:00 -0.5 C 4.54 g/m*3 -0.5 C 0 km/h
450 22-01-2020 13:25:00 -0.4 C 4.57 g/m*3 -0.4 C 0 km/h
Sensor: Nr:Datum:Temp:Abs-Feuchte:Windchill:Wind:
Aussen-T/F 451 22-01-2020 13:30:00 -0.4 C 4.57 g/m*3 -0.4 C 0 km/h
452 22-01-2020 13:35:00 -0.3 C 4.6 g/m*3 -0.3 C 0 km/h
453 22-01-2020 13:40:00 -0.3 C 4.6 g/m*3 -0.3 C 1.6 km/h
454 22-01-2020 13:45:00 -0.3 C 4.65 g/m*3 -0.3 C 0 km/h
455 22-01-2020 13:50:00 -0.2 C 4.68 g/m*3 -0.2 C 0 km/h
456 22-01-2020 13:55:00 -0.2 C 4.68 g/m*3 -0.2 C 1.6 km/h
457 22-01-2020 14:00:00 -0.2 C 4.68 g/m*3 -0.2 C 0 km/h
458 22-01-2020 14:05:00 -0.2 C 4.68 g/m*3 -0.2 C 0 km/h
459 22-01-2020 14:10:00 -0.2 C 4.68 g/m*3 -0.2 C 0 km/h
460 22-01-2020 14:15:00 -0.2 C 4.68 g/m*3 -0.2 C 0 km/h
461 22-01-2020 14:20:00 -0.2 C 4.64 g/m*3 -0.2 C 0 km/h
462 22-01-2020 14:25:00 -0.2 C 4.64 g/m*3 -0.2 C 1.6 km/h
463 22-01-2020 14:30:00 -0.2 C 4.64 g/m*3 -0.2 C 0 km/h
464 22-01-2020 14:35:00 -0.2 C 4.64 g/m*3 -0.2 C 0 km/h
465 22-01-2020 14:40:00 -0.1 C 4.67 g/m*3 -0.1 C 0 km/h
466 22-01-2020 14:45:00 -0.1 C 4.67 g/m*3 -0.1 C 0 km/h
467 22-01-2020 14:50:00 -0.1 C 4.67 g/m*3 -0.1 C 0 km/h
468 22-01-2020 14:55:00 -0.1 C 4.67 g/m*3 -0.1 C 0 km/h
469 22-01-2020 15:00:00 -0.1 C 4.72 g/m*3 -0.1 C 0 km/h
470 22-01-2020 15:05:00 0 C 4.75 g/m*3 0 C 0 km/h
471 22-01-2020 15:10:00 0 C 4.75 g/m*3 0 C 0 km/h
472 22-01-2020 15:15:00 0 C 4.75 g/m*3 0 C 0 km/h
473 22-01-2020 15:20:00 0.1 C 4.78 g/m*3 0.1 C 0 km/h
474 22-01-2020 15:25:00 0.1 C 4.78 g/m*3 0.1 C 0 km/h
475 22-01-2020 15:30:00 0.1 C 4.73 g/m*3 0.1 C 0 km/h
Sensor: Nr:Datum:Temp:Abs-Feuchte:Windchill:Wind:
Aussen-T/F 476 22-01-2020 15:35:00 0.1 C 4.73 g/m*3 0.1 C 0 km/h
477 22-01-2020 15:40:00 0.2 C 4.77 g/m*3 0.2 C 0 km/h
478 22-01-2020 15:45:00 0.2 C 4.77 g/m*3 0.2 C 0 km/h
479 22-01-2020 15:50:00 0.2 C 4.77 g/m*3 0.2 C 0 km/h
480 22-01-2020 15:55:00 0.2 C 4.77 g/m*3 0.2 C 0 km/h
481 22-01-2020 16:00:00 0.2 C 4.77 g/m*3 0.2 C 0 km/h
482 22-01-2020 16:05:00 0.2 C 4.77 g/m*3 0.2 C 0 km/h
483 22-01-2020 16:10:00 0.3 C 4.85 g/m*3 0.3 C 0 km/h
484 22-01-2020 16:15:00 0.3 C 4.85 g/m*3 0.3 C 0 km/h
485 22-01-2020 16:20:00 0.3 C 4.8 g/m*3 0.3 C 0 km/h
486 22-01-2020 16:25:00 0.3 C 4.8 g/m*3 0.3 C 0 km/h
487 22-01-2020 16:30:00 0.3 C 4.8 g/m*3 0.3 C 0 km/h
488 22-01-2020 16:35:00 0.3 C 4.85 g/m*3 0.3 C 0 km/h
489 22-01-2020 16:40:00 0.3 C 4.8 g/m*3 0.3 C 0 km/h
490 22-01-2020 16:45:00 0.3 C 4.85 g/m*3 0.3 C 0 km/h
491 22-01-2020 16:50:00 0.3 C 4.8 g/m*3 0.3 C 0 km/h
492 22-01-2020 16:55:00 0.3 C 4.85 g/m*3 0.3 C 0 km/h
493 22-01-2020 17:00:00 0.3 C 4.85 g/m*3 0.3 C 0 km/h
494 22-01-2020 17:05:00 0.3 C 4.85 g/m*3 0.3 C 0 km/h
495 22-01-2020 17:10:00 0.3 C 4.85 g/m*3 0.3 C 0 km/h
496 22-01-2020 17:15:00 0.3 C 4.85 g/m*3 0.3 C 0 km/h
497 22-01-2020 17:20:00 0.3 C 4.85 g/m*3 0.3 C 0 km/h
498 22-01-2020 17:25:00 0.3 C 4.85 g/m*3 0.3 C 0 km/h
499 22-01-2020 17:30:00 0.3 C 4.85 g/m*3 0.3 C 0 km/h
500 22-01-2020 17:35:00 0.3 C 4.85 g/m*3 0.3 C 0 km/h
Sensor: Nr:Datum:Temp:Abs-Feuchte:Windchill:Wind:
Aussen-T/F 501 22-01-2020 17:40:00 0.3 C 4.85 g/m*3 0.3 C 0 km/h
502 22-01-2020 17:45:00 0.3 C 4.85 g/m*3 0.3 C 0 km/h
503 22-01-2020 17:50:00 0.3 C 4.85 g/m*3 0.3 C 0 km/h
504 22-01-2020 17:55:00 0.3 C 4.85 g/m*3 0.3 C 0 km/h
505 22-01-2020 18:00:00 0.3 C 4.85 g/m*3 0.3 C 0 km/h
506 22-01-2020 18:05:00 0.3 C 4.85 g/m*3 0.3 C 0 km/h
507 22-01-2020 18:10:00 0.3 C 4.85 g/m*3 0.3 C 0 km/h
508 22-01-2020 18:15:00 0.3 C 4.85 g/m*3 0.3 C 0 km/h
509 22-01-2020 18:20:00 0.3 C 4.85 g/m*3 0.3 C 0 km/h
510 22-01-2020 18:25:00 0.3 C 4.85 g/m*3 0.3 C 0 km/h
511 22-01-2020 18:30:00 0.3 C 4.85 g/m*3 0.3 C 0 km/h
512 22-01-2020 18:35:00 0.2 C 4.81 g/m*3 0.2 C 0 km/h
513 22-01-2020 18:40:00 0.2 C 4.77 g/m*3 0.2 C 0 km/h
514 22-01-2020 18:45:00 0.2 C 4.77 g/m*3 0.2 C 0 km/h
515 22-01-2020 18:50:00 0.2 C 4.77 g/m*3 0.2 C 0 km/h
516 22-01-2020 18:55:00 0.2 C 4.77 g/m*3 0.2 C 0 km/h
517 22-01-2020 19:00:00 0.3 C 4.85 g/m*3 0.3 C 0 km/h
518 22-01-2020 19:05:00 0.3 C 4.85 g/m*3 0.3 C 0 km/h
519 22-01-2020 19:10:00 0.3 C 4.85 g/m*3 0.3 C 0 km/h
520 22-01-2020 19:15:00 0.3 C 4.85 g/m*3 0.3 C 0 km/h
521 22-01-2020 19:20:00 0.3 C 4.85 g/m*3 0.3 C 0 km/h
522 22-01-2020 19:25:00 0.3 C 4.85 g/m*3 0.3 C 0 km/h
523 22-01-2020 19:30:00 0.4 C 4.88 g/m*3 0.4 C 0 km/h
524 22-01-2020 19:35:00 0.4 C 4.88 g/m*3 0.4 C 0 km/h
525 22-01-2020 19:40:00 0.4 C 4.88 g/m*3 0.4 C 0 km/h
Sensor: Nr:Datum:Temp:Abs-Feuchte:Windchill:Wind:
Aussen-T/F 526 22-01-2020 19:45:00 0.4 C 4.88 g/m*3 0.4 C 0 km/h
527 22-01-2020 19:50:00 0.4 C 4.88 g/m*3 0.4 C 0 km/h
528 22-01-2020 19:55:00 0.4 C 4.88 g/m*3 0.4 C 0 km/h
529 22-01-2020 20:00:00 0.5 C 4.91 g/m*3 0.5 C 0 km/h
530 22-01-2020 20:05:00 0.5 C 4.91 g/m*3 0.5 C 0 km/h
531 22-01-2020 20:10:00 0.5 C 4.91 g/m*3 0.5 C 0 km/h
532 22-01-2020 20:15:00 0.5 C 4.91 g/m*3 0.5 C 0 km/h
533 22-01-2020 20:20:00 0.5 C 4.91 g/m*3 0.5 C 0 km/h
534 22-01-2020 20:25:00 0.6 C 4.95 g/m*3 0.6 C 0 km/h
535 22-01-2020 20:30:00 0.6 C 4.95 g/m*3 0.6 C 0 km/h
536 22-01-2020 20:35:00 0.6 C 4.95 g/m*3 0.6 C 0 km/h
537 22-01-2020 20:40:00 0.6 C 4.95 g/m*3 0.6 C 0 km/h
538 22-01-2020 20:45:00 0.6 C 4.95 g/m*3 0.6 C 0 km/h
539 22-01-2020 20:50:00 0.6 C 4.95 g/m*3 0.6 C 0 km/h
540 22-01-2020 20:55:00 0.6 C 4.95 g/m*3 0.6 C 0 km/h
541 22-01-2020 21:00:00 0.6 C 4.95 g/m*3 0.6 C 0 km/h
542 22-01-2020 21:05:00 0.6 C 4.95 g/m*3 0.6 C 0 km/h
543 22-01-2020 21:10:00 0.6 C 4.95 g/m*3 0.6 C 0 km/h
544 22-01-2020 21:15:00 0.6 C 4.95 g/m*3 0.6 C 0 km/h
545 22-01-2020 21:20:00 0.7 C 4.98 g/m*3 0.7 C 0 km/h
546 22-01-2020 21:25:00 0.7 C 4.98 g/m*3 0.7 C 0 km/h
547 22-01-2020 21:30:00 0.7 C 4.98 g/m*3 0.7 C 0 km/h
548 22-01-2020 21:35:00 0.7 C 4.98 g/m*3 0.7 C 0 km/h
549 22-01-2020 21:40:00 0.7 C 4.98 g/m*3 0.7 C 0 km/h
550 22-01-2020 21:45:00 0.7 C 4.98 g/m*3 0.7 C 0 km/h
Sensor: Nr:Datum:Temp:Abs-Feuchte:Windchill:Wind:
Aussen-T/F 551 22-01-2020 21:50:00 0.7 C 4.98 g/m*3 0.7 C 0 km/h
552 22-01-2020 21:55:00 0.7 C 4.98 g/m*3 0.7 C 0 km/h
553 22-01-2020 22:00:00 0.7 C 4.98 g/m*3 0.7 C 0 km/h
554 22-01-2020 22:05:00 0.7 C 4.98 g/m*3 0.7 C 0 km/h
555 22-01-2020 22:10:00 0.7 C 4.98 g/m*3 0.7 C 0 km/h
556 22-01-2020 22:15:00 0.7 C 4.98 g/m*3 0.7 C 0 km/h
557 22-01-2020 22:20:00 0.7 C 4.98 g/m*3 0.7 C 0 km/h
558 22-01-2020 22:25:00 0.7 C 4.98 g/m*3 0.7 C 0 km/h
559 22-01-2020 22:30:00 0.7 C 4.98 g/m*3 0.7 C 0 km/h
560 22-01-2020 22:35:00 0.7 C 4.98 g/m*3 0.7 C 0 km/h
561 22-01-2020 22:40:00 0.7 C 4.98 g/m*3 0.7 C 0 km/h
562 22-01-2020 22:45:00 0.8 C 5.02 g/m*3 0.8 C 0 km/h
563 22-01-2020 22:50:00 0.8 C 5.02 g/m*3 0.8 C 0 km/h
564 22-01-2020 22:55:00 0.8 C 5.02 g/m*3 0.8 C 0 km/h
565 22-01-2020 23:00:00 0.8 C 5.02 g/m*3 0.8 C 0 km/h
566 22-01-2020 23:05:00 0.8 C 5.02 g/m*3 0.8 C 0 km/h
567 22-01-2020 23:10:00 0.8 C 5.02 g/m*3 0.8 C 0 km/h
568 22-01-2020 23:15:00 0.8 C 5.02 g/m*3 0.8 C 0 km/h
569 22-01-2020 23:20:00 0.8 C 5.02 g/m*3 0.8 C 0 km/h
570 22-01-2020 23:25:00 0.8 C 5.02 g/m*3 0.8 C 0 km/h
571 22-01-2020 23:30:00 0.8 C 5.02 g/m*3 0.8 C 0 km/h
572 22-01-2020 23:35:00 0.8 C 5.02 g/m*3 0.8 C 0 km/h
573 22-01-2020 23:40:00 0.8 C 5.02 g/m*3 0.8 C 0 km/h
574 22-01-2020 23:45:00 0.8 C 5.02 g/m*3 0.8 C 0 km/h
575 22-01-2020 23:50:00 0.8 C 5.02 g/m*3 0.8 C 0 km/h
Sensor: Nr:Datum:Temp:Abs-Feuchte:Windchill:Wind:
Aussen-T/F 576 22-01-2020 23:55:00 0.8 C 5.02 g/m*3 0.8 C 0 km/h

Legende:
   Min
   Max


Maximal/Minimal-Werte vom 21.01.2020 - 22.01.2020

Sensor Min Max Avg
Temp
(Aussen-T/F)
-3.3 °C
21-01-2020  05:25:00
0.8 °C
22-01-2020  22:45:00
-1.5 °C
Abs-Feuchte
(Aussen-T/F)
3.65 g/m*3
21-01-2020  05:25:00
5.02 g/m*3
22-01-2020  22:45:00
4.23 g/m*3
Windchill
(Aussen-T/F)
-5.47 C
22-01-2020  08:15:00
0.8 C
22-01-2020  22:45:00
-1.54 C

Die Daten stammen von einer Davis Vantage Pro 2 Wetter-Station und werden unter Linux mit der Software wview2wettercgi und aufbereitet. Alle Angaben erfolgen ohne Gewähr für ihre Vollständigkeit oder Richtigkeit.
Kontakt: Rainer Krienke krienke@uni-koblenz.de . Meine Webseiten an der Uni Koblenz oder privat.
Version: $Revision: 0.78 $